createdAt,value
2023-09-28T00:04:10.660Z,101088.00
2023-09-28T00:09:13.928Z,101089.20
2023-09-28T00:14:17.168Z,101082.80
2023-09-28T00:19:20.453Z,101087.00
2023-09-28T00:24:25.720Z,101082.60
2023-09-28T00:29:29.125Z,101086.60
2023-09-28T00:34:32.334Z,101090.20
2023-09-28T00:39:37.174Z,101087.00
2023-09-28T00:44:40.395Z,101084.60
2023-09-28T00:49:45.530Z,101083.00
2023-09-28T00:54:51.206Z,101084.80
2023-09-28T00:59:55.754Z,101085.20
2023-09-28T01:04:59.279Z,101081.40
2023-09-28T01:10:02.513Z,101082.60
2023-09-28T01:15:12.470Z,101076.00
2023-09-28T01:20:20.053Z,101083.60
2023-09-28T01:25:23.665Z,101082.20
2023-09-28T01:30:26.965Z,101080.40
2023-09-28T01:35:31.514Z,101081.40
2023-09-28T01:40:34.745Z,101075.20
2023-09-28T01:45:38.349Z,101074.20
2023-09-28T01:50:41.579Z,101077.00
2023-09-28T01:55:44.884Z,101078.00
2023-09-28T02:00:48.196Z,101081.20
2023-09-28T02:05:51.534Z,101073.00
2023-09-28T02:10:54.933Z,101074.60
2023-09-28T02:15:58.433Z,101074.00
2023-09-28T02:21:01.840Z,101074.00
2023-09-28T02:26:09.329Z,101071.40
2023-09-28T02:31:12.986Z,101068.80
2023-09-28T02:36:16.531Z,101064.00
2023-09-28T02:41:21.873Z,101068.00
2023-09-28T02:46:27.167Z,101068.40
2023-09-28T02:51:30.542Z,101068.80
2023-09-28T02:56:33.750Z,101065.20
2023-09-28T03:01:36.970Z,101070.80
2023-09-28T03:06:40.775Z,101069.80
2023-09-28T03:11:44.077Z,101073.60
2023-09-28T03:16:47.419Z,101069.60
2023-09-28T03:21:50.800Z,101071.60
2023-09-28T03:27:07.998Z,101067.60
2023-09-28T03:32:13.147Z,101059.00
2023-09-28T03:37:20.283Z,101065.40
2023-09-28T03:42:23.388Z,101068.40
2023-09-28T03:47:26.966Z,101071.20
2023-09-28T03:52:31.445Z,101067.20
2023-09-28T03:57:34.685Z,101067.40
2023-09-28T04:02:38.390Z,101071.40
2023-09-28T04:07:43.265Z,101068.20
2023-09-28T04:12:46.536Z,101067.60
2023-09-28T04:17:49.847Z,101069.40
2023-09-28T04:22:53.555Z,101064.40
2023-09-28T04:27:57.293Z,101061.00
2023-09-28T04:33:00.624Z,101061.80
2023-09-28T04:38:04.657Z,101057.00
2023-09-28T04:43:07.933Z,101054.20
2023-09-28T04:48:11.247Z,101054.80
2023-09-28T04:53:15.029Z,101052.80
2023-09-28T04:58:18.787Z,101052.80
2023-09-28T05:03:21.959Z,101057.00
2023-09-28T05:08:25.636Z,101055.00
2023-09-28T05:13:33.062Z,101054.60
2023-09-28T05:18:39.434Z,101052.40
2023-09-28T05:23:43.714Z,101046.00
2023-09-28T05:28:46.995Z,101043.00
2023-09-28T05:33:51.635Z,101043.80
2023-09-28T05:38:54.836Z,101035.60
2023-09-28T05:43:58.053Z,101036.80
2023-09-28T05:49:01.247Z,101040.40
2023-09-28T05:54:05.057Z,101041.40
2023-09-28T05:59:08.816Z,101046.40
2023-09-28T06:04:13.413Z,101049.80
2023-09-28T06:09:16.644Z,101049.40
2023-09-28T06:14:21.196Z,101044.60
2023-09-28T06:19:24.609Z,101043.00
2023-09-28T06:24:27.779Z,101049.40
2023-09-28T06:29:33.615Z,101052.80
2023-09-28T06:34:36.865Z,101054.20
2023-09-28T06:39:40.201Z,101048.20
2023-09-28T06:44:43.392Z,101054.00
2023-09-28T06:49:46.501Z,101044.80
2023-09-28T06:54:49.701Z,101043.60
2023-09-28T06:59:52.914Z,101044.80
2023-09-28T07:04:57.376Z,101039.20
2023-09-28T07:10:00.873Z,101037.00
2023-09-28T07:15:05.719Z,101035.00
2023-09-28T07:20:09.659Z,101036.80
2023-09-28T07:25:12.877Z,101037.60
2023-09-28T07:30:20.486Z,101035.60
2023-09-28T07:35:24.004Z,101034.40
2023-09-28T07:40:36.531Z,101035.60
2023-09-28T07:45:51.316Z,101034.40
2023-09-28T07:50:55.207Z,101037.20
2023-09-28T07:55:59.119Z,101032.80
2023-09-28T08:01:03.210Z,101031.80
2023-09-28T08:06:06.472Z,101031.40
2023-09-28T08:11:09.824Z,101033.60
2023-09-28T08:16:13.534Z,101028.00
2023-09-28T08:21:16.847Z,101033.40
2023-09-28T08:26:20.114Z,101025.60
2023-09-28T08:31:23.463Z,101026.20
2023-09-28T08:36:30.897Z,101024.80
2023-09-28T08:41:48.650Z,101024.40
2023-09-28T08:46:59.201Z,101024.40
2023-09-28T08:52:04.637Z,101028.80
2023-09-28T08:57:08.313Z,101020.40
2023-09-28T09:02:12.204Z,101019.00
2023-09-28T09:07:17.077Z,101018.00
2023-09-28T09:12:20.749Z,101014.40
2023-09-28T09:17:37.090Z,101007.20
2023-09-28T09:22:53.441Z,101009.40
2023-09-28T09:28:03.760Z,100997.80
2023-09-28T09:33:10.207Z,100992.40
2023-09-28T09:38:14.094Z,100990.80
2023-09-28T09:43:17.341Z,100991.80
2023-09-28T09:48:22.888Z,100985.00
2023-09-28T09:53:28.270Z,100983.20
2023-09-28T09:58:40.412Z,100980.00
2023-09-28T10:03:52.852Z,100973.00
2023-09-28T10:08:56.802Z,100970.60
2023-09-28T10:14:01.094Z,100976.40
2023-09-28T10:19:08.130Z,100969.40
2023-09-28T10:24:13.789Z,100972.40
2023-09-28T10:29:30.569Z,100963.80
2023-09-28T10:34:33.818Z,100958.40
2023-09-28T10:39:37.147Z,100956.20
2023-09-28T10:44:58.750Z,100958.20
2023-09-28T10:50:06.252Z,100963.40
2023-09-28T10:55:10.097Z,100960.00
2023-09-28T11:00:14.241Z,100959.40
2023-09-28T11:05:21.746Z,100958.00
2023-09-28T11:10:25.758Z,100953.00
2023-09-28T11:15:31.167Z,100957.40
2023-09-28T11:20:34.581Z,100950.00
2023-09-28T11:25:46.046Z,100945.40
2023-09-28T11:31:10.183Z,100946.00
2023-09-28T11:36:23.427Z,100944.20
2023-09-28T11:41:28.029Z,100944.60
2023-09-28T11:46:33.630Z,100938.80
2023-09-28T11:51:39.392Z,100940.80
2023-09-28T11:56:46.575Z,100934.20
2023-09-28T12:01:53.702Z,100933.80
2023-09-28T12:06:57.173Z,100932.20
2023-09-28T12:12:00.558Z,100930.60
2023-09-28T12:17:05.353Z,100925.40
2023-09-28T12:22:08.954Z,100924.00
2023-09-28T12:27:13.624Z,100919.40
2023-09-28T12:32:16.852Z,100920.60
2023-09-28T12:37:20.043Z,100909.80
2023-09-28T12:42:25.991Z,100905.20
2023-09-28T12:47:29.194Z,100911.00
2023-09-28T12:52:33.123Z,100913.00
2023-09-28T12:57:36.863Z,100906.60
2023-09-28T13:02:40.638Z,100902.60
2023-09-28T13:07:44.093Z,100891.00
2023-09-28T13:12:47.829Z,100892.20
2023-09-28T13:17:51.140Z,100889.40
2023-09-28T13:22:58.878Z,100880.80
2023-09-28T13:28:02.587Z,100875.80
2023-09-28T13:33:08.226Z,100873.60
2023-09-28T13:38:11.818Z,100877.60
2023-09-28T13:43:15.252Z,100872.20
2023-09-28T13:48:18.491Z,100874.60
2023-09-28T13:53:22.038Z,100872.00
2023-09-28T13:58:26.448Z,100867.20
2023-09-28T14:03:31.229Z,100858.20
2023-09-28T14:08:35.420Z,100849.60
2023-09-28T14:13:38.904Z,100845.80
2023-09-28T14:18:42.366Z,100842.40
2023-09-28T14:23:46.035Z,100843.20
2023-09-28T14:28:49.458Z,100835.60
2023-09-28T14:33:52.961Z,100841.40
2023-09-28T14:38:56.378Z,100834.60
2023-09-28T14:44:00.816Z,100829.00
2023-09-28T14:49:04.844Z,100823.80
2023-09-28T14:54:08.271Z,100827.40
2023-09-28T14:59:11.943Z,100826.20
2023-09-28T15:04:15.452Z,100828.80
2023-09-28T15:09:18.537Z,100827.80
2023-09-28T15:14:21.854Z,100828.40
2023-09-28T15:19:25.022Z,100830.80
2023-09-28T15:24:28.354Z,100823.40
2023-09-28T15:29:31.607Z,100827.20
2023-09-28T15:34:34.861Z,100832.80
2023-09-28T15:39:38.476Z,100825.60
2023-09-28T15:44:41.720Z,100824.80
2023-09-28T15:49:45.746Z,100827.60
2023-09-28T15:54:48.917Z,100831.60
2023-09-28T15:59:52.258Z,100827.60
2023-09-28T16:04:56.356Z,100825.00
2023-09-28T16:09:59.583Z,100830.20
2023-09-28T16:15:03.522Z,100834.40
2023-09-28T16:20:08.310Z,100833.80
2023-09-28T16:25:11.647Z,100830.20
2023-09-28T16:30:14.967Z,100831.80
2023-09-28T16:35:18.287Z,100835.60
2023-09-28T16:40:22.504Z,100840.00
2023-09-28T16:45:25.710Z,100845.80
2023-09-28T16:50:30.006Z,100854.80
2023-09-28T16:55:35.621Z,100854.80
2023-09-28T17:00:38.919Z,100859.60
2023-09-28T17:05:42.540Z,100861.40
2023-09-28T17:10:46.053Z,100860.40
2023-09-28T17:15:50.253Z,100864.60
2023-09-28T17:20:53.621Z,100860.80
2023-09-28T17:25:57.143Z,100865.60
2023-09-28T17:31:00.237Z,100869.20
2023-09-28T17:36:03.754Z,100873.60
2023-09-28T17:41:12.022Z,100870.20
2023-09-28T17:46:15.215Z,100877.40
2023-09-28T17:51:18.396Z,100878.80
2023-09-28T17:56:21.844Z,100875.20
2023-09-28T18:01:25.132Z,100882.60
2023-09-28T18:06:28.330Z,100883.40
2023-09-28T18:11:31.650Z,100893.20
2023-09-28T18:16:38.202Z,100896.00
2023-09-28T18:21:41.477Z,100891.20
2023-09-28T18:26:44.972Z,100893.00
2023-09-28T18:31:48.401Z,100898.00
2023-09-28T18:36:51.567Z,100900.80
2023-09-28T18:41:54.798Z,100894.00
2023-09-28T18:46:58.902Z,100902.40
2023-09-28T18:52:02.790Z,100905.20
2023-09-28T18:57:07.229Z,100906.40
2023-09-28T19:02:10.622Z,100917.40
2023-09-28T19:07:14.316Z,100918.00
2023-09-28T19:12:17.720Z,100921.60
2023-09-28T19:17:21.049Z,100925.60
2023-09-28T19:22:24.452Z,100928.20
2023-09-28T19:27:37.870Z,100926.20
2023-09-28T19:32:43.995Z,100918.60
2023-09-28T19:37:47.381Z,100920.20
2023-09-28T19:42:50.713Z,100919.20
2023-09-28T19:47:54.171Z,100917.00
2023-09-28T19:52:57.647Z,100914.60
2023-09-28T19:58:01.135Z,100910.40
2023-09-28T20:03:05.866Z,100914.20
2023-09-28T20:08:10.243Z,100909.00
2023-09-28T20:13:13.426Z,100912.20
2023-09-28T20:18:17.056Z,100913.20
2023-09-28T20:23:20.496Z,100910.60
2023-09-28T20:28:24.320Z,100906.40
2023-09-28T20:33:27.932Z,100902.40
2023-09-28T20:38:32.021Z,100900.60
2023-09-28T20:43:35.246Z,100896.40
2023-09-28T20:48:38.628Z,100896.40
2023-09-28T20:53:42.246Z,100892.80
2023-09-28T20:58:45.703Z,100893.80
2023-09-28T21:03:50.299Z,100896.00
2023-09-28T21:08:53.833Z,100901.20
2023-09-28T21:13:57.444Z,100905.00
2023-09-28T21:19:01.166Z,100909.80
2023-09-28T21:24:06.754Z,100906.60
2023-09-28T21:29:09.970Z,100903.80
2023-09-28T21:34:13.480Z,100897.00
2023-09-28T21:39:16.582Z,100898.20
2023-09-28T21:44:19.916Z,100902.40
2023-09-28T21:49:23.209Z,100902.20
2023-09-28T21:54:27.683Z,100897.00
2023-09-28T21:59:30.864Z,100898.60
2023-09-28T22:04:35.325Z,100896.40
2023-09-28T22:09:38.502Z,100903.60
2023-09-28T22:14:41.864Z,100913.40
2023-09-28T22:19:45.116Z,100916.00
2023-09-28T22:24:48.343Z,100907.80
2023-09-28T22:29:51.684Z,100906.60
2023-09-28T22:34:54.961Z,100906.00
2023-09-28T22:40:02.801Z,100905.60
2023-09-28T22:45:12.017Z,100907.40
2023-09-28T22:50:16.116Z,100903.40
2023-09-28T22:55:19.389Z,100900.20
2023-09-28T23:00:22.768Z,100898.20
2023-09-28T23:05:26.337Z,100893.40
2023-09-28T23:10:30.523Z,100891.20
2023-09-28T23:15:34.786Z,100891.80
2023-09-28T23:20:39.653Z,100889.20
2023-09-28T23:25:44.074Z,100891.20
2023-09-28T23:30:49.626Z,100888.20
2023-09-28T23:35:52.864Z,100888.00
2023-09-28T23:40:59.814Z,100895.20
2023-09-28T23:46:04.355Z,100896.40
2023-09-28T23:51:09.094Z,100908.00
2023-09-28T23:56:14.134Z,100908.40
